createdAt,value
2017-05-24T00:00:49.072Z,0
2017-05-24T00:01:58.289Z,0
2017-05-24T00:03:07.658Z,0
2017-05-24T00:04:16.881Z,0
2017-05-24T00:05:26.097Z,0
2017-05-24T00:06:34.993Z,0
2017-05-24T00:07:44.214Z,0
2017-05-24T00:08:53.576Z,0
2017-05-24T00:10:02.807Z,0
2017-05-24T00:11:11.696Z,0
2017-05-24T00:12:20.589Z,0
2017-05-24T00:13:29.808Z,0
2017-05-24T00:14:39.026Z,0
2017-05-24T00:15:48.239Z,0
2017-05-24T00:16:57.131Z,0
2017-05-24T00:18:06.671Z,0
2017-05-24T00:19:15.885Z,0
2017-05-24T00:20:25.248Z,0
2017-05-24T00:21:34.466Z,0
2017-05-24T00:22:43.679Z,0
2017-05-24T00:23:52.570Z,0
2017-05-24T00:25:01.463Z,0
2017-05-24T00:26:11.101Z,0
2017-05-24T00:27:19.994Z,0
2017-05-24T00:28:28.888Z,0
2017-05-24T00:29:38.116Z,0
2017-05-24T00:30:47.334Z,0
2017-05-24T00:31:56.281Z,0
2017-05-24T00:33:05.496Z,0
2017-05-24T00:34:14.714Z,0
2017-05-24T00:35:23.603Z,0
2017-05-24T00:36:32.812Z,0
2017-05-24T00:37:42.357Z,0
2017-05-24T00:38:51.567Z,0
2017-05-24T00:40:00.799Z,0
2017-05-24T00:41:10.010Z,0
2017-05-24T00:42:19.227Z,0
2017-05-24T00:43:28.593Z,0
2017-05-24T00:44:37.819Z,0
2017-05-24T00:45:47.033Z,0
2017-05-24T00:46:55.924Z,0
2017-05-24T00:48:04.817Z,0
2017-05-24T00:49:14.332Z,0
2017-05-24T00:50:23.607Z,0
2017-05-24T00:51:32.820Z,0
2017-05-24T00:52:42.037Z,0
2017-05-24T00:53:50.929Z,0
2017-05-24T00:55:00.801Z,0
2017-05-24T00:56:10.014Z,0
2017-05-24T00:57:18.920Z,0
2017-05-24T00:58:28.137Z,0
2017-05-24T00:59:37.680Z,0
2017-05-24T01:00:46.995Z,0
2017-05-24T01:01:55.901Z,0
2017-05-24T01:03:05.118Z,0
2017-05-24T01:04:14.994Z,0
2017-05-24T01:05:23.888Z,0
2017-05-24T01:06:33.901Z,0
2017-05-24T01:07:43.766Z,0
2017-05-24T01:08:53.307Z,0
2017-05-24T01:10:03.507Z,0
2017-05-24T01:11:12.400Z,0
2017-05-24T01:12:21.911Z,0
2017-05-24T01:13:30.798Z,0
2017-05-24T01:14:40.016Z,0
2017-05-24T01:15:49.555Z,0
2017-05-24T01:16:58.775Z,0
2017-05-24T01:18:07.812Z,0
2017-05-24T01:19:17.032Z,0
2017-05-24T01:20:26.246Z,0
2017-05-24T01:21:35.463Z,0
2017-05-24T01:22:44.676Z,0
2017-05-24T01:23:54.204Z,0
2017-05-24T01:25:04.073Z,0
2017-05-24T01:26:13.292Z,0
2017-05-24T01:27:22.181Z,0
2017-05-24T01:28:31.395Z,0
2017-05-24T01:29:40.437Z,0
2017-05-24T01:30:49.326Z,0
2017-05-24T01:31:58.539Z,0
2017-05-24T01:33:07.434Z,0
2017-05-24T01:34:16.977Z,0
2017-05-24T01:35:26.295Z,0
2017-05-24T01:36:35.508Z,0
2017-05-24T01:37:44.728Z,0
2017-05-24T01:38:53.613Z,0
2017-05-24T01:40:03.159Z,0
2017-05-24T01:41:12.475Z,0
2017-05-24T01:42:21.386Z,0
2017-05-24T01:43:30.608Z,0
2017-05-24T01:44:39.502Z,0
2017-05-24T01:45:48.716Z,0
2017-05-24T01:46:57.659Z,0
2017-05-24T01:48:06.873Z,0
2017-05-24T01:49:16.736Z,0
2017-05-24T01:50:25.624Z,0
2017-05-24T01:51:34.838Z,0
2017-05-24T01:52:44.531Z,0
2017-05-24T01:53:53.751Z,0
2017-05-24T01:55:03.287Z,0
2017-05-24T01:56:12.177Z,0
2017-05-24T01:57:21.069Z,0
2017-05-24T01:58:30.708Z,0
2017-05-24T01:59:39.922Z,0
2017-05-24T02:00:49.142Z,0
2017-05-24T02:01:58.366Z,0
2017-05-24T02:03:07.577Z,0
2017-05-24T02:04:16.501Z,0
2017-05-24T02:05:25.720Z,0
2017-05-24T02:06:34.610Z,0
2017-05-24T02:07:43.834Z,0
2017-05-24T02:08:53.425Z,0
2017-05-24T02:10:02.968Z,0
2017-05-24T02:11:11.855Z,0
2017-05-24T02:12:21.722Z,0
2017-05-24T02:13:30.612Z,0
2017-05-24T02:14:39.502Z,0
2017-05-24T02:15:48.817Z,0
2017-05-24T02:16:58.680Z,0
2017-05-24T02:18:07.573Z,0
2017-05-24T02:19:16.467Z,0
2017-05-24T02:20:25.356Z,0
2017-05-24T02:21:34.395Z,0
2017-05-24T02:22:43.613Z,0
2017-05-24T02:23:53.150Z,0
2017-05-24T02:25:02.059Z,0
2017-05-24T02:26:10.944Z,0
2017-05-24T02:27:19.884Z,0
2017-05-24T02:28:29.092Z,0
2017-05-24T02:29:37.985Z,0
2017-05-24T02:30:47.198Z,0
2017-05-24T02:31:56.416Z,0
2017-05-24T02:33:05.354Z,4
2017-05-24T02:34:14.898Z,4
2017-05-24T02:35:23.787Z,4
2017-05-24T02:36:33.005Z,0
2017-05-24T02:37:41.900Z,0
2017-05-24T02:38:51.492Z,4
2017-05-24T02:40:00.709Z,4
2017-05-24T02:41:09.919Z,4
2017-05-24T02:42:50.854Z,8
2017-05-24T02:44:00.122Z,4
2017-05-24T02:45:09.666Z,8
2017-05-24T02:46:18.554Z,8
2017-05-24T02:47:27.445Z,8
2017-05-24T02:48:36.337Z,8
2017-05-24T02:49:45.701Z,12
2017-05-24T02:50:54.921Z,16
2017-05-24T02:52:04.520Z,16
2017-05-24T02:53:14.386Z,20
2017-05-24T02:54:23.606Z,24
2017-05-24T02:55:32.818Z,28
2017-05-24T02:56:41.707Z,32
2017-05-24T02:57:50.606Z,36
2017-05-24T02:58:59.494Z,40
2017-05-24T03:00:08.711Z,44
2017-05-24T03:01:17.603Z,52
2017-05-24T03:02:26.819Z,52
2017-05-24T03:03:35.709Z,60
2017-05-24T03:04:45.255Z,68
2017-05-24T03:05:54.465Z,76
2017-05-24T03:07:03.403Z,84
2017-05-24T03:08:12.615Z,96
2017-05-24T03:09:21.829Z,104
2017-05-24T03:10:30.718Z,116
2017-05-24T03:11:39.607Z,128
2017-05-24T03:12:48.826Z,140
2017-05-24T03:13:58.365Z,152
2017-05-24T03:15:07.908Z,164
2017-05-24T03:16:17.452Z,180
2017-05-24T03:17:26.343Z,196
2017-05-24T03:18:36.043Z,212
2017-05-24T03:19:45.265Z,232
2017-05-24T03:20:54.480Z,248
2017-05-24T03:22:03.694Z,268
2017-05-24T03:23:12.910Z,288
2017-05-24T03:24:22.403Z,308
2017-05-24T03:25:31.618Z,332
2017-05-24T03:26:40.835Z,352
2017-05-24T03:27:50.702Z,376
2017-05-24T03:28:59.593Z,392
2017-05-24T03:30:08.479Z,412
2017-05-24T03:31:17.370Z,428
2017-05-24T03:32:26.257Z,448
2017-05-24T03:33:35.152Z,464
2017-05-24T03:34:44.368Z,484
2017-05-24T03:35:53.458Z,500
2017-05-24T03:37:02.999Z,524
2017-05-24T03:38:12.216Z,544
2017-05-24T03:39:21.432Z,564
2017-05-24T03:40:30.647Z,584
2017-05-24T03:41:40.012Z,608
2017-05-24T03:42:49.233Z,632
2017-05-24T03:43:58.773Z,656
2017-05-24T03:45:08.312Z,680
2017-05-24T03:46:17.522Z,700
2017-05-24T03:47:26.837Z,724
2017-05-24T03:48:36.059Z,740
2017-05-24T03:49:44.946Z,764
2017-05-24T03:50:53.835Z,788
2017-05-24T03:52:03.050Z,824
2017-05-24T03:53:12.093Z,860
2017-05-24T03:54:21.635Z,896
2017-05-24T03:55:30.521Z,936
2017-05-24T03:56:39.734Z,944
2017-05-24T03:57:48.622Z,940
2017-05-24T03:58:57.617Z,928
2017-05-24T04:00:06.835Z,924
2017-05-24T04:01:16.047Z,928
2017-05-24T04:02:24.939Z,936
2017-05-24T04:03:33.827Z,948
2017-05-24T04:04:43.146Z,964
2017-05-24T04:05:52.364Z,988
2017-05-24T04:07:01.255Z,976
2017-05-24T04:08:10.472Z,992
2017-05-24T04:09:19.366Z,976
2017-05-24T04:10:28.669Z,964
2017-05-24T04:11:38.207Z,964
2017-05-24T04:12:47.424Z,972
2017-05-24T04:13:56.642Z,1004
2017-05-24T04:15:05.860Z,1012
2017-05-24T04:16:14.861Z,1036
2017-05-24T04:17:23.749Z,1052
2017-05-24T04:18:32.644Z,1080
2017-05-24T04:19:42.186Z,1112
2017-05-24T04:20:51.728Z,1104
2017-05-24T04:22:01.195Z,1128
2017-05-24T04:23:10.413Z,1160
2017-05-24T04:24:19.304Z,1196
2017-05-24T04:25:28.209Z,1240
2017-05-24T04:26:37.749Z,1264
2017-05-24T04:27:46.796Z,1300
2017-05-24T04:28:56.013Z,1344
2017-05-24T04:30:05.231Z,1424
2017-05-24T04:31:14.448Z,1512
2017-05-24T04:32:23.666Z,1648
2017-05-24T04:33:32.710Z,1768
2017-05-24T04:34:41.933Z,1780
2017-05-24T04:35:51.151Z,1748
2017-05-24T04:37:00.046Z,1668
2017-05-24T04:38:09.263Z,1580
2017-05-24T04:39:18.532Z,1492
2017-05-24T04:40:27.418Z,1492
2017-05-24T04:41:36.317Z,1504
2017-05-24T04:42:46.180Z,1436
2017-05-24T04:43:55.721Z,1500
2017-05-24T04:45:05.258Z,1740
2017-05-24T04:46:14.555Z,1988
2017-05-24T04:47:23.459Z,2212
2017-05-24T04:48:32.348Z,2548
2017-05-24T04:49:41.242Z,2740
2017-05-24T04:50:50.798Z,2688
2017-05-24T04:51:59.690Z,2572
2017-05-24T04:53:09.225Z,2740
2017-05-24T04:54:18.689Z,2808
2017-05-24T04:55:28.227Z,2764
2017-05-24T04:56:37.440Z,2808
2017-05-24T04:57:46.981Z,3008
2017-05-24T04:58:55.873Z,2956
2017-05-24T05:00:05.431Z,2576
2017-05-24T05:01:14.676Z,2360
2017-05-24T05:02:23.893Z,2400
2017-05-24T05:03:33.118Z,2696
2017-05-24T05:04:42.631Z,3092
2017-05-24T05:05:51.853Z,3296
2017-05-24T05:07:00.750Z,3300
2017-05-24T05:08:09.964Z,3252
2017-05-24T05:09:19.507Z,3328
2017-05-24T05:10:28.548Z,3264
2017-05-24T05:11:38.104Z,3156
2017-05-24T05:12:47.327Z,3088
2017-05-24T05:13:56.217Z,3096
2017-05-24T05:15:05.446Z,3096
2017-05-24T05:16:14.339Z,3360
2017-05-24T05:17:23.233Z,3676
2017-05-24T05:18:32.777Z,3804
2017-05-24T05:19:42.322Z,3368
2017-05-24T05:20:51.210Z,3024
2017-05-24T05:22:00.724Z,2584
2017-05-24T05:23:09.612Z,2144
2017-05-24T05:24:18.831Z,1992
2017-05-24T05:25:28.046Z,1912
2017-05-24T05:26:37.590Z,1948
2017-05-24T05:27:47.132Z,1972
2017-05-24T05:28:56.351Z,1996
2017-05-24T05:30:06.221Z,1880
2017-05-24T05:31:15.112Z,1612
2017-05-24T05:32:24.002Z,1508
2017-05-24T05:33:33.094Z,1688
2017-05-24T05:34:42.647Z,1728
2017-05-24T05:35:51.862Z,1788
2017-05-24T05:37:00.754Z,1860
2017-05-24T05:38:09.973Z,1896
2017-05-24T05:39:19.342Z,1940
2017-05-24T05:40:28.556Z,1940
2017-05-24T05:41:37.454Z,2048
2017-05-24T05:42:46.997Z,2112
2017-05-24T05:43:56.540Z,2120
2017-05-24T05:45:05.807Z,2116
2017-05-24T05:46:15.021Z,2108
2017-05-24T05:47:24.235Z,2136
2017-05-24T05:48:33.454Z,2128
2017-05-24T05:49:42.995Z,2132
2017-05-24T05:50:52.508Z,2048
2017-05-24T05:52:01.402Z,2084
2017-05-24T05:53:10.299Z,2104
2017-05-24T05:54:20.167Z,2120
2017-05-24T05:55:29.384Z,2092
2017-05-24T05:56:38.646Z,2052
2017-05-24T05:57:48.189Z,2148
2017-05-24T05:58:57.401Z,2344
2017-05-24T06:00:06.948Z,2332
2017-05-24T06:01:15.842Z,2464
2017-05-24T06:02:25.362Z,2688
2017-05-24T06:03:34.578Z,2912
2017-05-24T06:04:43.467Z,3188
2017-05-24T06:05:52.360Z,3372
2017-05-24T06:07:01.582Z,3440
2017-05-24T06:08:10.483Z,3372
2017-05-24T06:09:19.701Z,3544
2017-05-24T06:10:29.575Z,3940
2017-05-24T06:11:38.796Z,4276
2017-05-24T06:12:48.662Z,4604
2017-05-24T06:13:58.130Z,5008
2017-05-24T06:15:07.372Z,5372
2017-05-24T06:16:16.589Z,5324
2017-05-24T06:17:25.803Z,5328
2017-05-24T06:18:35.020Z,5348
2017-05-24T06:19:44.714Z,5124
2017-05-24T06:20:54.255Z,5144
2017-05-24T06:22:03.147Z,5228
2017-05-24T06:23:12.042Z,5268
2017-05-24T06:24:21.583Z,5656
2017-05-24T06:25:30.635Z,6032
2017-05-24T06:26:39.854Z,5788
2017-05-24T06:27:48.751Z,5568
2017-05-24T06:28:58.621Z,5216
2017-05-24T06:30:07.516Z,5260
2017-05-24T06:31:17.264Z,5384
2017-05-24T06:32:26.162Z,4888
2017-05-24T06:33:35.715Z,4716
2017-05-24T06:34:45.588Z,4700
2017-05-24T06:35:54.480Z,4508
2017-05-24T06:37:03.621Z,4152
2017-05-24T06:38:12.513Z,3844
2017-05-24T06:39:21.732Z,3872
2017-05-24T06:40:30.949Z,4036
2017-05-24T06:41:40.491Z,4800
2017-05-24T06:42:49.835Z,3976
2017-05-24T06:44:00.039Z,3580
2017-05-24T06:45:09.263Z,3244
2017-05-24T06:46:19.132Z,3084
2017-05-24T06:47:28.679Z,2932
2017-05-24T06:48:38.605Z,3148
2017-05-24T06:49:47.824Z,3048
2017-05-24T06:50:57.369Z,2912
2017-05-24T06:52:06.584Z,2860
2017-05-24T06:53:16.130Z,2872
2017-05-24T06:54:25.450Z,2868
2017-05-24T06:55:34.344Z,2808
2017-05-24T06:56:43.559Z,2872
2017-05-24T06:57:52.778Z,2980
2017-05-24T06:59:02.321Z,2940
2017-05-24T07:00:11.598Z,2912
2017-05-24T07:01:21.146Z,3048
2017-05-24T07:02:30.047Z,3052
2017-05-24T07:03:39.928Z,2828
2017-05-24T07:04:49.150Z,3032
2017-05-24T07:05:58.373Z,2940
2017-05-24T07:07:07.606Z,3020
2017-05-24T07:08:16.507Z,3468
2017-05-24T07:09:25.727Z,3432
2017-05-24T07:10:34.942Z,3208
2017-05-24T07:11:43.982Z,3288
2017-05-24T07:12:52.876Z,3508
2017-05-24T07:14:02.103Z,3608
2017-05-24T07:15:11.642Z,3728
2017-05-24T07:16:20.536Z,3844
2017-05-24T07:17:29.914Z,4060
2017-05-24T07:18:39.463Z,4708
2017-05-24T07:19:49.005Z,5676
2017-05-24T07:20:58.556Z,7144
2017-05-24T07:22:07.445Z,8640
2017-05-24T07:23:16.495Z,8908
2017-05-24T07:24:26.691Z,9264
2017-05-24T07:25:35.591Z,9368
2017-05-24T07:26:44.489Z,8144
2017-05-24T07:27:53.712Z,7324
2017-05-24T07:29:03.583Z,5988
2017-05-24T07:30:12.807Z,4684
2017-05-24T07:31:22.036Z,4244
2017-05-24T07:32:31.259Z,3864
2017-05-24T07:33:40.810Z,3616
2017-05-24T07:34:50.509Z,3768
2017-05-24T07:35:59.730Z,3864
2017-05-24T07:37:08.952Z,4392
2017-05-24T07:38:17.853Z,5448
2017-05-24T07:39:26.754Z,4948
2017-05-24T07:40:35.902Z,4808
2017-05-24T07:41:45.133Z,5192
2017-05-24T07:42:54.356Z,5788
2017-05-24T07:44:03.910Z,6316
2017-05-24T07:45:13.455Z,6892
2017-05-24T07:46:22.730Z,7360
2017-05-24T07:47:31.953Z,7732
2017-05-24T07:48:41.498Z,7028
2017-05-24T07:49:50.390Z,5968
2017-05-24T07:50:59.615Z,5776
2017-05-24T07:52:09.186Z,5968
2017-05-24T07:53:18.505Z,5476
2017-05-24T07:54:27.725Z,4720
2017-05-24T07:55:36.942Z,4528
2017-05-24T07:56:45.834Z,4704
2017-05-24T07:57:55.110Z,4964
2017-05-24T07:59:04.338Z,6172
2017-05-24T08:00:13.238Z,5496
2017-05-24T08:01:22.141Z,4212
2017-05-24T08:02:31.360Z,4280
2017-05-24T08:03:40.733Z,4552
2017-05-24T08:04:49.954Z,4572
2017-05-24T08:05:59.501Z,4480
2017-05-24T08:07:08.720Z,4404
2017-05-24T08:08:18.591Z,5316
2017-05-24T08:09:27.986Z,6952
2017-05-24T08:10:37.205Z,8692
2017-05-24T08:11:46.095Z,9776
2017-05-24T08:12:55.643Z,9884
2017-05-24T08:14:04.548Z,10876
2017-05-24T08:15:13.442Z,11332
2017-05-24T08:16:22.668Z,11808
2017-05-24T08:17:31.563Z,11392
2017-05-24T08:18:41.430Z,11008
2017-05-24T08:19:51.302Z,11384
2017-05-24T08:21:00.532Z,11636
2017-05-24T08:22:09.752Z,11208
2017-05-24T08:23:18.650Z,9872
2017-05-24T08:24:28.855Z,10116
2017-05-24T08:25:37.748Z,9212
2017-05-24T08:26:46.701Z,8024
2017-05-24T08:27:55.928Z,7364
2017-05-24T08:29:05.476Z,7412
2017-05-24T08:30:14.374Z,7816
2017-05-24T08:31:23.930Z,7364
2017-05-24T08:32:33.079Z,6308
2017-05-24T08:33:42.300Z,5160
2017-05-24T08:34:51.520Z,5924
2017-05-24T08:36:01.067Z,5752
2017-05-24T08:37:09.965Z,5052
2017-05-24T08:38:19.667Z,4552
2017-05-24T08:39:28.902Z,4260
2017-05-24T08:40:38.443Z,3836
2017-05-24T08:41:47.344Z,3420
2017-05-24T08:42:56.567Z,3240
2017-05-24T08:44:05.936Z,3028
2017-05-24T08:45:15.156Z,3268
2017-05-24T08:46:24.053Z,3560
2017-05-24T08:47:32.950Z,3484
2017-05-24T08:48:42.504Z,3188
2017-05-24T08:49:51.832Z,3060
2017-05-24T08:51:01.381Z,2948
2017-05-24T08:52:10.596Z,3124
2017-05-24T08:53:19.493Z,3048
2017-05-24T08:54:28.397Z,3380
2017-05-24T08:55:37.399Z,3460
2017-05-24T08:56:46.654Z,3216
2017-05-24T08:57:55.891Z,3060
2017-05-24T08:59:04.789Z,3060
2017-05-24T09:00:14.082Z,3484
2017-05-24T09:01:23.134Z,3516
2017-05-24T09:02:32.365Z,3488
2017-05-24T09:03:41.261Z,4312
2017-05-24T09:04:50.803Z,5688
2017-05-24T09:05:59.696Z,5492
2017-05-24T09:07:08.971Z,7360
2017-05-24T09:08:17.869Z,7876
2017-05-24T09:09:27.088Z,6020
2017-05-24T09:10:35.981Z,5400
2017-05-24T09:11:45.206Z,4264
2017-05-24T09:12:54.430Z,4164
2017-05-24T09:14:03.655Z,5712
2017-05-24T09:15:12.893Z,5932
2017-05-24T09:16:21.797Z,5136
2017-05-24T09:17:31.020Z,4472
2017-05-24T09:18:39.916Z,4600
2017-05-24T09:19:49.469Z,5400
2017-05-24T09:20:59.013Z,6924
2017-05-24T09:22:07.910Z,8504
2017-05-24T09:23:16.813Z,10676
2017-05-24T09:24:26.093Z,10988
2017-05-24T09:25:35.009Z,11112
2017-05-24T09:26:44.885Z,12152
2017-05-24T09:27:53.778Z,12656
2017-05-24T09:29:03.672Z,13552
2017-05-24T09:30:13.142Z,13404
2017-05-24T09:31:22.369Z,13492
2017-05-24T09:32:31.268Z,13008
2017-05-24T09:33:40.495Z,12424
2017-05-24T09:34:50.046Z,11756
2017-05-24T09:35:59.744Z,11180
2017-05-24T09:37:08.640Z,11804
2017-05-24T09:38:17.867Z,14176
2017-05-24T09:39:27.413Z,15224
2017-05-24T09:40:36.634Z,15560
2017-05-24T09:41:45.581Z,16256
2017-05-24T09:42:54.476Z,15216
2017-05-24T09:44:03.376Z,15124
2017-05-24T09:45:12.277Z,13444
2017-05-24T09:46:21.494Z,13576
2017-05-24T09:47:30.436Z,12016
2017-05-24T09:48:39.344Z,11372
2017-05-24T09:49:48.247Z,12072
2017-05-24T09:50:57.798Z,11912
2017-05-24T09:52:06.707Z,13284
2017-05-24T09:53:15.771Z,15672
2017-05-24T09:54:24.997Z,15772
2017-05-24T09:55:33.896Z,15624
2017-05-24T09:56:43.122Z,15420
2017-05-24T09:57:52.678Z,14972
2017-05-24T09:59:02.983Z,14112
2017-05-24T10:00:11.891Z,14932
2017-05-24T10:01:21.110Z,16928
2017-05-24T10:02:30.332Z,16864
2017-05-24T10:03:39.230Z,16928
2017-05-24T10:04:48.833Z,16672
2017-05-24T10:05:57.727Z,17728
2017-05-24T10:07:07.288Z,18208
2017-05-24T10:08:16.512Z,18464
2017-05-24T10:09:25.735Z,19136
2017-05-24T10:10:35.286Z,19616
2017-05-24T10:11:44.184Z,19488
2017-05-24T10:12:53.080Z,19648
2017-05-24T10:14:01.984Z,20416
2017-05-24T10:15:11.209Z,19776
2017-05-24T10:16:20.438Z,19072
2017-05-24T10:17:29.669Z,18976
2017-05-24T10:18:39.213Z,18336
2017-05-24T10:19:48.776Z,17248
2017-05-24T10:20:57.675Z,16064
2017-05-24T10:22:06.625Z,14220
2017-05-24T10:23:15.854Z,13492
2017-05-24T10:24:25.730Z,15176
2017-05-24T10:25:34.952Z,18272
2017-05-24T10:26:44.169Z,17248
2017-05-24T10:27:53.870Z,15496
2017-05-24T10:29:03.424Z,15888
2017-05-24T10:30:12.654Z,16576
2017-05-24T10:31:21.875Z,15784
2017-05-24T10:32:30.774Z,17184
2017-05-24T10:33:40.415Z,18400
2017-05-24T10:34:50.295Z,19808
2017-05-24T10:35:59.845Z,21280
2017-05-24T10:37:08.753Z,22144
2017-05-24T10:38:17.651Z,22272
2017-05-24T10:39:27.347Z,21568
2017-05-24T10:40:36.952Z,20736
2017-05-24T10:41:46.500Z,20064
2017-05-24T10:42:55.732Z,18720
2017-05-24T10:44:05.282Z,17024
2017-05-24T10:45:14.185Z,17312
2017-05-24T10:46:23.083Z,16800
2017-05-24T10:47:32.306Z,15056
2017-05-24T10:48:41.202Z,13260
2017-05-24T10:49:50.754Z,12724
2017-05-24T10:50:59.705Z,12716
2017-05-24T10:52:08.602Z,12924
2017-05-24T10:53:17.847Z,14280
2017-05-24T10:54:26.758Z,14140
2017-05-24T10:55:35.659Z,12016
2017-05-24T10:56:44.981Z,11128
2017-05-24T10:57:53.882Z,13292
2017-05-24T10:59:03.760Z,15360
2017-05-24T11:00:12.678Z,15444
2017-05-24T11:01:21.576Z,14072
2017-05-24T11:02:30.845Z,14644
2017-05-24T11:03:39.759Z,16072
2017-05-24T11:04:49.312Z,16864
2017-05-24T11:05:58.215Z,17376
2017-05-24T11:07:07.440Z,17696
2017-05-24T11:08:16.913Z,15596
2017-05-24T11:09:26.150Z,17536
2017-05-24T11:10:35.383Z,18560
2017-05-24T11:11:44.279Z,19552
2017-05-24T11:12:54.159Z,19712
2017-05-24T11:14:03.534Z,20448
2017-05-24T11:15:12.435Z,20288
2017-05-24T11:16:21.340Z,18752
2017-05-24T11:17:30.567Z,17312
2017-05-24T11:18:39.464Z,17440
2017-05-24T11:19:48.515Z,18048
2017-05-24T11:20:57.420Z,18592
2017-05-24T11:22:06.644Z,18976
2017-05-24T11:23:15.874Z,19360
2017-05-24T11:24:25.107Z,19648
2017-05-24T11:25:34.866Z,18688
2017-05-24T11:26:44.739Z,17216
2017-05-24T11:27:54.292Z,17408
2017-05-24T11:29:03.200Z,17472
2017-05-24T11:30:12.443Z,17568
2017-05-24T11:31:21.929Z,17984
2017-05-24T11:32:30.835Z,18592
2017-05-24T11:33:40.075Z,19072
2017-05-24T11:34:49.646Z,20736
2017-05-24T11:35:59.195Z,21664
2017-05-24T11:37:08.195Z,22112
2017-05-24T11:38:17.422Z,21248
2017-05-24T11:39:26.320Z,21632
2017-05-24T11:40:35.223Z,21280
2017-05-24T11:41:44.125Z,21280
2017-05-24T11:42:53.613Z,21664
2017-05-24T11:44:02.537Z,23072
2017-05-24T11:45:11.446Z,24800
2017-05-24T11:46:20.350Z,25728
2017-05-24T11:47:29.293Z,26272
2017-05-24T11:48:38.649Z,24480
2017-05-24T11:49:47.877Z,23776
2017-05-24T11:50:57.105Z,20896
2017-05-24T11:52:06.010Z,19584
2017-05-24T11:53:15.245Z,17696
2017-05-24T11:54:24.833Z,17152
2017-05-24T11:55:33.784Z,17920
2017-05-24T11:56:43.032Z,18720
2017-05-24T11:57:52.037Z,19424
2017-05-24T11:59:01.697Z,19040
2017-05-24T12:00:10.779Z,19296
2017-05-24T12:01:19.837Z,19872
2017-05-24T12:02:28.839Z,20032
2017-05-24T12:03:37.790Z,20160
2017-05-24T12:04:47.066Z,21760
2017-05-24T12:05:56.838Z,22592
2017-05-24T12:07:06.080Z,22016
2017-05-24T12:08:15.043Z,22848
2017-05-24T12:09:24.674Z,23264
2017-05-24T12:10:34.627Z,19680
2017-05-24T12:11:44.722Z,18816
2017-05-24T12:12:54.296Z,19744
2017-05-24T12:14:03.612Z,19360
2017-05-24T12:15:12.551Z,17024
2017-05-24T12:16:21.783Z,15428
2017-05-24T12:17:31.764Z,13624
2017-05-24T12:18:41.019Z,13484
2017-05-24T12:19:50.254Z,13816
2017-05-24T12:20:59.202Z,13640
2017-05-24T12:22:08.547Z,13444
2017-05-24T12:23:17.541Z,12556
2017-05-24T12:24:26.833Z,12704
2017-05-24T12:25:36.076Z,12560
2017-05-24T12:26:45.027Z,12148
2017-05-24T12:27:54.320Z,11124
2017-05-24T12:29:03.431Z,10248
2017-05-24T12:30:12.426Z,9872
2017-05-24T12:31:21.715Z,10012
2017-05-24T12:32:30.624Z,9556
2017-05-24T12:33:39.939Z,10200
2017-05-24T12:34:49.321Z,10068
2017-05-24T12:35:58.645Z,9536
2017-05-24T12:37:07.883Z,10372
2017-05-24T12:38:16.829Z,11240
2017-05-24T12:39:26.448Z,11820
2017-05-24T12:40:35.408Z,11572
2017-05-24T12:41:44.987Z,11288
2017-05-24T12:42:54.571Z,10920
2017-05-24T12:44:03.807Z,10768
2017-05-24T12:45:13.035Z,10568
2017-05-24T12:46:22.426Z,10504
2017-05-24T12:47:31.655Z,10496
2017-05-24T12:48:40.877Z,10584
2017-05-24T12:49:49.778Z,10068
2017-05-24T12:50:59.010Z,9128
2017-05-24T12:52:08.035Z,8648
2017-05-24T12:53:17.306Z,8680
2017-05-24T12:54:26.607Z,8600
2017-05-24T12:55:35.523Z,8220
2017-05-24T12:56:44.752Z,7860
2017-05-24T12:57:54.077Z,7512
2017-05-24T12:59:02.992Z,7008
2017-05-24T13:00:11.892Z,7092
2017-05-24T13:01:21.178Z,7160
2017-05-24T13:02:30.453Z,7252
2017-05-24T13:03:39.494Z,7828
2017-05-24T13:04:48.518Z,8448
2017-05-24T13:05:57.810Z,8936
2017-05-24T13:07:06.716Z,9460
2017-05-24T13:08:15.629Z,10080
2017-05-24T13:09:25.358Z,9824
2017-05-24T13:10:34.630Z,8728
2017-05-24T13:11:43.559Z,7560
2017-05-24T13:12:52.479Z,6412
2017-05-24T13:14:02.706Z,6696
2017-05-24T13:15:12.231Z,7420
2017-05-24T13:16:21.487Z,8664
2017-05-24T13:17:30.387Z,8592
2017-05-24T13:18:39.962Z,8720
2017-05-24T13:19:49.583Z,8912
2017-05-24T13:20:58.785Z,7948
2017-05-24T13:22:08.010Z,8488
2017-05-24T13:23:17.246Z,8860
2017-05-24T13:24:26.490Z,9156
2017-05-24T13:25:35.721Z,8980
2017-05-24T13:26:45.063Z,8576
2017-05-24T13:27:53.971Z,8268
2017-05-24T13:29:03.200Z,8724
2017-05-24T13:30:12.124Z,8616
2017-05-24T13:31:21.359Z,8028
2017-05-24T13:32:30.513Z,8144
2017-05-24T13:33:39.883Z,8432
2017-05-24T13:34:49.351Z,8500
2017-05-24T13:35:58.591Z,8080
2017-05-24T13:37:08.146Z,7648
2017-05-24T13:38:17.733Z,7584
2017-05-24T13:39:27.246Z,8768
2017-05-24T13:40:37.065Z,10424
2017-05-24T13:41:46.314Z,12516
2017-05-24T13:42:55.705Z,15360
2017-05-24T13:44:05.392Z,16704
2017-05-24T13:45:14.304Z,15800
2017-05-24T13:46:23.682Z,14112
2017-05-24T13:47:32.656Z,12696
2017-05-24T13:48:41.664Z,12076
2017-05-24T13:49:51.443Z,11348
2017-05-24T13:51:01.041Z,11980
2017-05-24T13:52:10.203Z,13260
2017-05-24T13:53:20.365Z,12512
2017-05-24T13:54:29.626Z,11976
2017-05-24T13:55:38.853Z,13196
2017-05-24T13:56:48.104Z,14840
2017-05-24T13:57:57.378Z,16216
2017-05-24T13:59:06.742Z,14812
2017-05-24T14:00:16.046Z,12104
2017-05-24T14:01:26.230Z,11632
2017-05-24T14:02:35.272Z,11680
2017-05-24T14:03:45.243Z,11420
2017-05-24T14:04:54.414Z,10932
2017-05-24T14:06:04.271Z,11516
2017-05-24T14:07:13.876Z,11704
2017-05-24T14:08:23.219Z,11596
2017-05-24T14:09:32.805Z,11900
2017-05-24T14:10:42.467Z,11784
2017-05-24T14:11:51.439Z,11604
2017-05-24T14:13:01.006Z,11772
2017-05-24T14:14:10.591Z,13156
2017-05-24T14:15:20.126Z,13636
2017-05-24T14:16:29.747Z,13168
2017-05-24T14:17:39.316Z,12564
2017-05-24T14:18:48.434Z,11492
2017-05-24T14:19:57.659Z,11168
2017-05-24T14:21:06.885Z,10744
2017-05-24T14:22:15.779Z,9408
2017-05-24T14:23:25.004Z,9208
2017-05-24T14:24:34.540Z,9524
2017-05-24T14:25:43.438Z,9596
2017-05-24T14:26:52.342Z,8060
2017-05-24T14:28:01.895Z,7708
2017-05-24T14:29:10.793Z,8340
2017-05-24T14:30:20.170Z,7828
2017-05-24T14:31:29.072Z,6528
2017-05-24T14:32:38.623Z,5696
2017-05-24T14:33:47.521Z,5340
2017-05-24T14:34:56.752Z,5448
2017-05-24T14:36:06.450Z,5292
2017-05-24T14:37:15.673Z,5236
2017-05-24T14:38:25.876Z,5216
2017-05-24T14:39:35.428Z,4696
2017-05-24T14:40:44.649Z,4204
2017-05-24T14:41:53.920Z,4192
2017-05-24T14:43:02.817Z,4416
2017-05-24T14:44:12.369Z,5388
2017-05-24T14:45:21.915Z,6000
2017-05-24T14:46:31.147Z,5712
2017-05-24T14:47:40.044Z,5620
2017-05-24T14:48:48.938Z,5996
2017-05-24T14:49:58.160Z,6020
2017-05-24T14:51:08.037Z,5604
2017-05-24T14:52:17.262Z,5048
2017-05-24T14:53:27.137Z,4996
2017-05-24T14:54:36.680Z,6140
2017-05-24T14:55:45.577Z,7644
2017-05-24T14:56:54.473Z,8320
2017-05-24T14:58:03.695Z,8380
2017-05-24T14:59:12.744Z,9020
2017-05-24T15:00:21.641Z,8688
2017-05-24T15:01:30.537Z,8500
2017-05-24T15:02:39.434Z,8688
2017-05-24T15:03:48.653Z,9260
2017-05-24T15:04:58.354Z,12000
2017-05-24T15:06:07.578Z,18336
2017-05-24T15:07:17.123Z,27904
2017-05-24T15:08:26.355Z,26720
2017-05-24T15:09:35.900Z,33984
2017-05-24T15:10:45.172Z,25728
2017-05-24T15:11:54.390Z,22496
2017-05-24T15:13:03.978Z,21792
2017-05-24T15:14:12.888Z,17408
2017-05-24T15:15:22.105Z,13152
2017-05-24T15:16:31.057Z,10180
2017-05-24T15:17:40.286Z,9040
2017-05-24T15:18:49.197Z,9184
2017-05-24T15:19:58.753Z,9088
2017-05-24T15:21:07.709Z,8484
2017-05-24T15:22:16.991Z,8476
2017-05-24T15:23:25.990Z,9776
2017-05-24T15:24:35.711Z,9512
2017-05-24T15:25:45.384Z,8068
2017-05-24T15:26:54.554Z,7040
2017-05-24T15:28:03.937Z,6972
2017-05-24T15:29:13.478Z,8456
2017-05-24T15:30:22.893Z,8480
2017-05-24T15:31:32.122Z,8044
2017-05-24T15:32:41.017Z,7900
2017-05-24T15:33:49.921Z,7544